Akanu Ibiam International Airport


Codes: DNEN/ENU
Name: Akanu Ibiam International Airport
City: Enegu
Country: Nigeria
Elevation: 466 ft.
Website:
Wikipedia:

Photos at Akanu Ibiam International Airport


   Photos courtesy of SpottingLog. You can add your own sightings and photos by signing up for a free trial today.



No photos found.

Weather at Akanu Ibiam International Airport


Time (UTC)DescriptionTempratureWindCloud coverageVisibilityPressureHumidity
16-Jun-2024 12:00Light Rain26°C4 mph, SW100%10000m1013hPa82%
16-Jun-2024 15:00Moderate Rain25°C2 mph, S100%5583m1012hPa91%
16-Jun-2024 18:00Moderate Rain23°C4 mph, SW100%10000m1012hPa97%
16-Jun-2024 21:00Moderate Rain23°C7 mph, SW100%10000m1014hPa97%
17-Jun-2024 00:00Light Rain22°C2 mph, SW100%10000m1013hPa97%
17-Jun-2024 03:00Overcast Clouds22°C2 mph, SW100%10000m1013hPa95%
17-Jun-2024 06:00Light Rain22°C2 mph, S100%10000m1014hPa98%
17-Jun-2024 09:00Light Rain26°C2 mph, SE94%10000m1015hPa82%
17-Jun-2024 12:00Broken Clouds30°C4 mph, S77%10000m1013hPa62%
17-Jun-2024 15:00Overcast Clouds28°C7 mph, S100%10000m1011hPa70%
17-Jun-2024 18:00Overcast Clouds25°C4 mph, SW100%10000m1012hPa81%
17-Jun-2024 21:00Overcast Clouds24°C4 mph, W100%10000m1013hPa82%
18-Jun-2024 00:00Overcast Clouds23°C4 mph, SW99%10000m1012hPa83%
18-Jun-2024 03:00Overcast Clouds23°C4 mph, W100%10000m1012hPa86%
18-Jun-2024 06:00Overcast Clouds23°C2 mph, W100%10000m1014hPa91%
18-Jun-2024 09:00Overcast Clouds26°C4 mph, SW97%10000m1015hPa80%
18-Jun-2024 12:00Overcast Clouds26°C2 mph, S98%10000m1014hPa83%
18-Jun-2024 15:00Overcast Clouds25°C4 mph, SE100%10000m1012hPa91%
18-Jun-2024 18:00Overcast Clouds24°C4 mph, SW100%10000m1011hPa91%
18-Jun-2024 21:00Overcast Clouds24°C2 mph, SE100%10000m1013hPa90%
19-Jun-2024 00:00Overcast Clouds23°C4 mph, SW100%10000m1012hPa92%
19-Jun-2024 03:00Broken Clouds22°C4 mph, SW79%10000m1011hPa94%
19-Jun-2024 06:00Overcast Clouds23°C2 mph, SW89%10000m1012hPa92%
19-Jun-2024 09:00Overcast Clouds27°C4 mph, S100%10000m1014hPa78%
19-Jun-2024 12:00Light Rain31°C4 mph, SE98%10000m1012hPa65%
19-Jun-2024 15:00Overcast Clouds31°C4 mph, SE96%10000m1009hPa62%
19-Jun-2024 18:00Overcast Clouds27°C4 mph, S97%10000m1010hPa79%
19-Jun-2024 21:00Light Rain24°C4 mph, S69%10000m1013hPa92%
20-Jun-2024 00:00Light Rain24°C4 mph, SW81%10000m1012hPa96%
20-Jun-2024 03:00Overcast Clouds24°C4 mph, SW100%10000m1011hPa96%
20-Jun-2024 06:00Overcast Clouds24°C2 mph, SW100%10000m1012hPa96%
20-Jun-2024 09:00Overcast Clouds27°C7 mph, SW100%10000m1013hPa82%
20-Jun-2024 12:00Light Rain28°C4 mph, S100%10000m1011hPa77%
20-Jun-2024 15:00Light Rain30°C4 mph, SW100%10000m1009hPa67%
20-Jun-2024 18:00Light Rain25°C4 mph, S100%10000m1010hPa89%
20-Jun-2024 21:00Moderate Rain24°C7 mph, SW100%5531m1013hPa94%
21-Jun-2024 00:00Light Rain24°C4 mph, SW100%10000m1012hPa97%
21-Jun-2024 03:00Overcast Clouds23°C4 mph, SW100%10000m1012hPa98%
21-Jun-2024 06:00Overcast Clouds23°C4 mph, SW99%10000m1014hPa97%
21-Jun-2024 09:00Light Rain28°C7 mph, SW81%10000m1015hPa79%